createdAt,value
2022-10-06T00:01:20.290Z,99.90
2022-10-06T00:03:46.989Z,99.90
2022-10-06T00:06:14.512Z,99.90
2022-10-06T00:08:41.680Z,99.90
2022-10-06T00:11:10.548Z,99.90
2022-10-06T00:13:37.732Z,99.90
2022-10-06T00:16:17.449Z,99.90
2022-10-06T00:18:44.549Z,99.90
2022-10-06T00:21:11.137Z,99.90
2022-10-06T00:23:37.700Z,99.90
2022-10-06T00:26:04.351Z,99.90
2022-10-06T00:28:31.231Z,99.90
2022-10-06T00:31:00.799Z,99.90
2022-10-06T00:33:27.384Z,99.90
2022-10-06T00:35:58.066Z,99.90
2022-10-06T00:38:25.071Z,99.90
2022-10-06T00:40:51.782Z,99.90
2022-10-06T00:43:37.161Z,99.90
2022-10-06T00:46:04.131Z,99.90
2022-10-06T00:48:31.242Z,99.90
2022-10-06T00:50:58.631Z,99.90
2022-10-06T00:53:27.676Z,99.90
2022-10-06T00:55:54.547Z,99.90
2022-10-06T00:58:21.590Z,99.90
2022-10-06T01:00:49.386Z,99.90
2022-10-06T01:03:19.029Z,99.90
2022-10-06T01:05:49.867Z,99.90
2022-10-06T01:08:16.681Z,99.90
2022-10-06T01:10:43.397Z,99.90
2022-10-06T01:13:11.221Z,99.90
2022-10-06T01:15:40.339Z,99.90
2022-10-06T01:18:13.305Z,99.90
2022-10-06T01:20:42.993Z,99.90
2022-10-06T01:23:10.356Z,99.90
2022-10-06T01:25:37.433Z,99.90
2022-10-06T01:28:05.174Z,99.90
2022-10-06T01:30:36.279Z,99.90
2022-10-06T01:33:02.908Z,99.90
2022-10-06T01:35:29.582Z,99.90
2022-10-06T01:37:58.889Z,99.90
2022-10-06T01:40:29.006Z,99.90
2022-10-06T01:42:56.220Z,99.90
2022-10-06T01:45:23.013Z,99.90
2022-10-06T01:47:49.827Z,99.90
2022-10-06T01:50:16.470Z,99.90
2022-10-06T01:52:43.050Z,99.90
2022-10-06T01:55:09.760Z,99.90
2022-10-06T01:57:40.125Z,99.90
2022-10-06T02:00:07.544Z,99.90
2022-10-06T02:02:34.184Z,99.90
2022-10-06T02:05:00.783Z,99.90
2022-10-06T02:07:27.397Z,99.90
2022-10-06T02:09:54.106Z,99.90
2022-10-06T02:12:20.962Z,99.90
2022-10-06T02:14:47.533Z,99.90
2022-10-06T02:17:14.402Z,99.90
2022-10-06T02:19:41.016Z,99.90
2022-10-06T02:22:07.612Z,99.90
2022-10-06T02:24:34.233Z,99.90
2022-10-06T02:27:00.855Z,99.90
2022-10-06T02:29:27.517Z,99.90
2022-10-06T02:31:54.871Z,99.90
2022-10-06T02:34:21.472Z,99.90
2022-10-06T02:36:48.046Z,99.90
2022-10-06T02:39:14.614Z,99.90
2022-10-06T02:41:41.213Z,99.90
2022-10-06T02:44:07.863Z,99.90
2022-10-06T02:46:34.591Z,99.90
2022-10-06T02:49:01.240Z,99.90
2022-10-06T02:51:27.905Z,99.90
2022-10-06T02:53:54.519Z,99.90
2022-10-06T02:56:22.813Z,99.90
2022-10-06T02:58:50.115Z,99.90
2022-10-06T03:01:18.357Z,99.90
2022-10-06T03:03:46.672Z,99.90
2022-10-06T03:06:23.402Z,99.90
2022-10-06T03:08:57.772Z,99.90
2022-10-06T03:11:31.470Z,99.90
2022-10-06T03:13:58.271Z,99.90
2022-10-06T03:16:26.376Z,99.90
2022-10-06T03:18:53.783Z,99.90
2022-10-06T03:21:21.785Z,99.90
2022-10-06T03:23:49.091Z,99.90
2022-10-06T03:26:17.669Z,99.90
2022-10-06T03:28:44.823Z,99.90
2022-10-06T03:31:11.879Z,99.90
2022-10-06T03:33:38.515Z,99.90
2022-10-06T03:36:10.470Z,99.90
2022-10-06T03:38:37.303Z,99.90
2022-10-06T03:41:03.876Z,99.90
2022-10-06T03:43:30.601Z,99.90
2022-10-06T03:45:57.817Z,99.90
2022-10-06T03:48:24.482Z,99.90
2022-10-06T03:50:56.702Z,99.90
2022-10-06T03:53:25.789Z,99.90
2022-10-06T03:55:59.725Z,99.90
2022-10-06T03:58:27.579Z,99.90
2022-10-06T04:01:04.602Z,99.90
2022-10-06T04:03:31.667Z,99.90
2022-10-06T04:05:59.328Z,99.90
2022-10-06T04:08:26.868Z,99.90
2022-10-06T04:10:54.150Z,99.90
2022-10-06T04:13:21.333Z,99.90
2022-10-06T04:15:48.345Z,99.90
2022-10-06T04:18:15.613Z,99.90
2022-10-06T04:20:42.579Z,99.90
2022-10-06T04:23:09.667Z,99.90
2022-10-06T04:25:36.308Z,99.90
2022-10-06T04:28:02.958Z,99.90
2022-10-06T04:30:30.190Z,99.90
2022-10-06T04:32:56.764Z,99.90
2022-10-06T04:35:23.417Z,99.90
2022-10-06T04:37:50.134Z,99.90
2022-10-06T04:40:16.804Z,99.90
2022-10-06T04:42:43.489Z,99.90
2022-10-06T04:45:10.494Z,99.90
2022-10-06T04:47:37.136Z,99.90
2022-10-06T04:50:03.995Z,99.90
2022-10-06T04:52:31.080Z,99.90
2022-10-06T04:54:57.723Z,99.90
2022-10-06T04:57:24.374Z,99.90
2022-10-06T05:00:14.612Z,99.90
2022-10-06T05:02:41.796Z,99.90
2022-10-06T05:05:08.480Z,99.90
2022-10-06T05:07:35.126Z,99.90
2022-10-06T05:10:01.696Z,99.90
2022-10-06T05:12:31.232Z,99.90
2022-10-06T05:14:57.927Z,99.90
2022-10-06T05:17:24.666Z,99.90
2022-10-06T05:19:51.241Z,99.90
2022-10-06T05:22:17.820Z,99.90
2022-10-06T05:24:44.447Z,99.90
2022-10-06T05:27:11.188Z,99.90
2022-10-06T05:29:37.861Z,99.90
2022-10-06T05:32:05.152Z,99.90
2022-10-06T05:34:31.773Z,99.90
2022-10-06T05:36:58.495Z,99.90
2022-10-06T05:39:25.064Z,99.90
2022-10-06T05:41:51.781Z,99.90
2022-10-06T05:44:18.521Z,99.90
2022-10-06T05:46:45.096Z,99.90
2022-10-06T05:49:12.923Z,99.90
2022-10-06T05:51:42.653Z,99.90
2022-10-06T05:54:09.261Z,99.90
2022-10-06T05:56:36.829Z,99.90
2022-10-06T05:59:03.956Z,99.90
2022-10-06T06:01:31.757Z,99.90
2022-10-06T06:04:06.504Z,99.90
2022-10-06T06:06:37.709Z,99.90
2022-10-06T06:09:11.901Z,99.90
2022-10-06T06:11:42.637Z,99.90
2022-10-06T06:14:10.785Z,99.90
2022-10-06T06:16:39.094Z,99.90
2022-10-06T06:19:06.560Z,99.90
2022-10-06T06:21:33.486Z,99.90
2022-10-06T06:24:00.060Z,99.90
2022-10-06T06:26:30.409Z,99.90
2022-10-06T06:29:02.682Z,99.90
2022-10-06T06:31:31.311Z,99.90
2022-10-06T06:33:59.134Z,99.90
2022-10-06T06:36:30.109Z,99.90
2022-10-06T06:38:57.835Z,99.90
2022-10-06T06:41:25.742Z,99.90
2022-10-06T06:43:55.381Z,99.90
2022-10-06T06:46:25.931Z,99.90
2022-10-06T06:48:53.472Z,99.90
2022-10-06T06:51:24.125Z,99.90
2022-10-06T06:53:51.569Z,99.90
2022-10-06T06:56:18.648Z,99.90
2022-10-06T06:58:49.069Z,99.90
2022-10-06T07:01:16.717Z,99.90
2022-10-06T07:03:57.567Z,99.90
2022-10-06T07:06:28.852Z,99.90
2022-10-06T07:08:56.745Z,99.90
2022-10-06T07:11:24.741Z,99.90
2022-10-06T07:13:53.055Z,99.90
2022-10-06T07:16:38.219Z,99.90
2022-10-06T07:19:24.966Z,99.90
2022-10-06T07:22:11.852Z,99.90
2022-10-06T07:24:56.992Z,99.90
2022-10-06T07:27:24.026Z,99.90
2022-10-06T07:29:54.421Z,99.90
2022-10-06T07:32:22.507Z,99.90
2022-10-06T07:34:49.340Z,99.10
2022-10-06T07:37:17.511Z,99.10
2022-10-06T07:39:44.946Z,98.70
2022-10-06T07:42:13.156Z,98.90
2022-10-06T07:44:39.921Z,98.20
2022-10-06T07:47:06.684Z,98.30
2022-10-06T07:49:33.316Z,98.20
2022-10-06T07:52:00.056Z,97.60
2022-10-06T07:54:27.471Z,96.30
2022-10-06T07:56:54.149Z,96.60
2022-10-06T07:59:21.326Z,96.40
2022-10-06T08:01:49.986Z,96.20
2022-10-06T08:04:16.822Z,96.20
2022-10-06T08:06:43.765Z,96.10
2022-10-06T08:09:10.588Z,95.90
2022-10-06T08:11:37.173Z,95.50
2022-10-06T08:14:03.768Z,95.60
2022-10-06T08:16:30.613Z,94.80
2022-10-06T08:18:58.588Z,95.60
2022-10-06T08:21:26.784Z,95.00
2022-10-06T08:23:53.920Z,95.30
2022-10-06T08:26:21.322Z,94.60
2022-10-06T08:28:48.819Z,94.50
2022-10-06T08:31:16.308Z,94.20
2022-10-06T08:33:43.848Z,92.60
2022-10-06T08:36:11.943Z,90.70
2022-10-06T08:38:38.584Z,89.40
2022-10-06T08:41:24.848Z,85.60
2022-10-06T08:43:54.510Z,81.10
2022-10-06T08:46:24.670Z,80.00
2022-10-06T08:48:51.624Z,76.70
2022-10-06T08:51:21.277Z,72.80
2022-10-06T08:54:11.228Z,69.70
2022-10-06T08:56:45.220Z,67.00
2022-10-06T08:59:12.089Z,66.30
2022-10-06T09:01:38.996Z,64.80
2022-10-06T09:04:07.241Z,62.20
2022-10-06T09:06:50.193Z,60.10
2022-10-06T09:09:16.760Z,59.00
2022-10-06T09:12:21.644Z,57.30
2022-10-06T09:14:52.742Z,56.60
2022-10-06T09:17:32.756Z,55.10
2022-10-06T09:20:09.382Z,54.10
2022-10-06T09:22:37.113Z,52.90
2022-10-06T09:25:17.478Z,53.80
2022-10-06T09:27:45.798Z,52.50
2022-10-06T09:30:12.875Z,52.20
2022-10-06T09:32:44.610Z,53.20
2022-10-06T09:35:17.240Z,52.10
2022-10-06T09:38:08.309Z,50.80
2022-10-06T09:40:52.143Z,51.10
2022-10-06T09:43:26.664Z,51.50
2022-10-06T09:45:54.898Z,52.60
2022-10-06T09:48:25.137Z,51.30
2022-10-06T09:51:10.645Z,52.90
2022-10-06T09:53:39.482Z,51.40
2022-10-06T09:56:18.774Z,51.20
2022-10-06T09:59:11.940Z,50.30
2022-10-06T10:01:38.558Z,50.70
2022-10-06T10:04:20.066Z,49.20
2022-10-06T10:06:47.680Z,49.30
2022-10-06T10:09:21.323Z,48.70
2022-10-06T10:12:18.331Z,49.50
2022-10-06T10:14:44.895Z,49.40
2022-10-06T10:17:23.336Z,50.10
2022-10-06T10:19:53.132Z,48.40
2022-10-06T10:24:55.528Z,49.90
2022-10-06T10:27:26.301Z,50.90
2022-10-06T10:30:01.008Z,50.60
2022-10-06T10:32:36.731Z,49.20
2022-10-06T10:35:06.573Z,50.50
2022-10-06T10:37:48.557Z,49.50
2022-10-06T10:40:21.229Z,51.40
2022-10-06T10:42:56.139Z,50.90
2022-10-06T10:45:24.835Z,49.90
2022-10-06T10:47:51.435Z,50.40
2022-10-06T10:50:27.123Z,53.20
2022-10-06T10:53:07.278Z,54.20
2022-10-06T10:55:36.116Z,54.50
2022-10-06T10:58:17.563Z,52.50
2022-10-06T11:00:45.978Z,54.40
2022-10-06T11:03:12.817Z,55.30
2022-10-06T11:06:05.259Z,55.50
2022-10-06T11:08:40.894Z,56.50
2022-10-06T11:11:16.247Z,56.20
2022-10-06T11:13:48.878Z,53.80
2022-10-06T11:16:20.725Z,53.20
2022-10-06T11:19:05.814Z,53.80
2022-10-06T11:21:37.511Z,56.10
2022-10-06T11:24:04.086Z,58.10
2022-10-06T11:26:44.649Z,61.70
2022-10-06T11:29:29.249Z,66.10
2022-10-06T11:32:07.914Z,64.60
2022-10-06T11:34:34.476Z,60.00
2022-10-06T11:37:10.243Z,56.60
2022-10-06T11:39:45.808Z,55.60
2022-10-06T11:42:31.219Z,55.40
2022-10-06T11:45:03.161Z,53.20
2022-10-06T11:47:44.331Z,51.70
2022-10-06T11:50:30.941Z,49.90
2022-10-06T11:52:57.556Z,49.90
2022-10-06T11:55:26.468Z,48.90
2022-10-06T11:58:23.372Z,50.00
2022-10-06T12:00:52.397Z,51.60
2022-10-06T12:03:28.231Z,52.70
2022-10-06T12:05:56.537Z,51.70
2022-10-06T12:08:36.367Z,52.00
2022-10-06T12:11:02.991Z,51.50
2022-10-06T12:19:41.466Z,51.40
2022-10-06T12:22:22.807Z,51.20
2022-10-06T12:25:01.497Z,53.10
2022-10-06T12:27:32.235Z,56.10
2022-10-06T12:30:14.032Z,57.00
2022-10-06T12:32:52.057Z,59.70
2022-10-06T12:35:24.727Z,60.20
2022-10-06T12:37:55.342Z,63.30
2022-10-06T12:40:40.980Z,65.00
2022-10-06T12:43:22.629Z,66.40
2022-10-06T12:46:02.128Z,65.50
2022-10-06T12:48:28.736Z,65.20
2022-10-06T12:51:01.545Z,65.30
2022-10-06T12:53:32.737Z,64.40
2022-10-06T12:56:02.798Z,65.60
2022-10-06T12:58:30.994Z,66.10
2022-10-06T13:01:12.584Z,67.70
2022-10-06T13:03:39.374Z,68.30
2022-10-06T13:06:07.359Z,70.40
2022-10-06T13:08:38.210Z,71.60
2022-10-06T13:11:17.005Z,72.20
2022-10-06T13:13:48.268Z,73.30
2022-10-06T13:16:15.883Z,75.20
2022-10-06T13:18:42.556Z,76.00
2022-10-06T13:21:12.465Z,77.20
2022-10-06T13:23:39.195Z,76.20
2022-10-06T13:26:07.199Z,76.40
2022-10-06T13:28:36.609Z,74.70
2022-10-06T13:31:16.608Z,72.10
2022-10-06T13:33:44.336Z,69.00
2022-10-06T13:36:11.442Z,67.40
2022-10-06T13:38:38.648Z,66.30
2022-10-06T13:41:07.523Z,64.00
2022-10-06T13:43:39.737Z,64.00
2022-10-06T13:46:07.859Z,63.10
2022-10-06T13:48:34.580Z,63.20
2022-10-06T13:51:03.370Z,64.30
2022-10-06T13:53:31.515Z,63.20
2022-10-06T13:55:58.716Z,63.70
2022-10-06T13:58:26.946Z,65.20
2022-10-06T14:01:00.397Z,68.40
2022-10-06T14:03:28.303Z,68.80
2022-10-06T14:06:27.894Z,69.50
2022-10-06T14:08:55.800Z,69.10
2022-10-06T14:11:29.562Z,69.20
2022-10-06T14:13:57.887Z,68.60
2022-10-06T14:16:25.794Z,69.50
2022-10-06T14:21:31.112Z,70.60
2022-10-06T14:23:59.192Z,70.40
2022-10-06T14:26:30.084Z,70.40
2022-10-06T14:28:58.739Z,71.30
2022-10-06T14:31:26.461Z,71.60
2022-10-06T14:33:53.616Z,72.10
2022-10-06T14:36:23.312Z,72.50
2022-10-06T14:38:51.464Z,71.70
2022-10-06T14:41:24.658Z,71.30
2022-10-06T14:43:58.493Z,71.80
2022-10-06T14:46:25.495Z,72.00
2022-10-06T14:48:52.219Z,72.70
2022-10-06T14:51:19.148Z,74.00
2022-10-06T14:53:53.228Z,75.00
2022-10-06T14:56:20.592Z,75.80
2022-10-06T14:58:47.266Z,76.70
2022-10-06T15:01:16.008Z,78.10
2022-10-06T15:03:46.821Z,79.20
2022-10-06T15:06:34.365Z,80.80
2022-10-06T15:09:00.936Z,82.20
2022-10-06T15:11:28.462Z,81.50
2022-10-06T15:13:56.458Z,81.80
2022-10-06T15:16:23.433Z,81.90
2022-10-06T15:18:50.720Z,81.90
2022-10-06T15:21:18.518Z,81.90
2022-10-06T15:23:45.579Z,83.40
2022-10-06T15:26:30.894Z,84.80
2022-10-06T15:29:03.424Z,83.30
2022-10-06T15:31:43.463Z,83.60
2022-10-06T15:34:11.224Z,83.30
2022-10-06T15:36:39.277Z,83.10
2022-10-06T15:39:05.936Z,82.90
2022-10-06T15:41:33.797Z,83.40
2022-10-06T15:44:00.380Z,83.50
2022-10-06T15:46:34.531Z,84.50
2022-10-06T15:49:05.215Z,86.30
2022-10-06T15:51:34.719Z,85.90
2022-10-06T15:54:01.413Z,87.10
2022-10-06T15:56:29.049Z,87.50
2022-10-06T15:58:55.692Z,89.30
2022-10-06T16:01:27.695Z,90.00
2022-10-06T16:03:54.529Z,90.00
2022-10-06T16:06:40.559Z,90.10
2022-10-06T16:09:08.913Z,89.40
2022-10-06T16:11:35.590Z,89.80
2022-10-06T16:14:02.251Z,90.00
2022-10-06T16:16:29.143Z,90.30
2022-10-06T16:18:55.740Z,90.50
2022-10-06T16:21:22.311Z,90.90
2022-10-06T16:23:51.017Z,90.90
2022-10-06T16:26:17.757Z,91.10
2022-10-06T16:28:44.458Z,91.20
2022-10-06T16:31:11.481Z,91.50
2022-10-06T16:33:38.147Z,92.10
2022-10-06T16:36:05.145Z,92.40
2022-10-06T16:38:32.543Z,93.00
2022-10-06T16:41:01.548Z,93.30
2022-10-06T16:43:32.308Z,93.70
2022-10-06T16:46:02.213Z,94.10
2022-10-06T16:48:29.835Z,94.50
2022-10-06T16:51:10.408Z,95.00
2022-10-06T16:53:37.037Z,95.60
2022-10-06T16:56:04.452Z,96.20
2022-10-06T16:58:41.676Z,96.60
2022-10-06T17:01:09.249Z,97.20
2022-10-06T17:03:36.419Z,98.00
2022-10-06T17:06:06.269Z,98.40
2022-10-06T17:08:33.160Z,98.90
2022-10-06T17:11:07.969Z,99.30
2022-10-06T17:13:35.820Z,99.80
2022-10-06T17:16:04.604Z,99.90
2022-10-06T17:18:31.465Z,99.90
2022-10-06T17:20:59.152Z,99.90
2022-10-06T17:23:26.223Z,99.90
2022-10-06T17:26:12.951Z,99.90
2022-10-06T17:28:42.029Z,99.90
2022-10-06T17:31:08.823Z,99.90
2022-10-06T17:33:37.961Z,99.90
2022-10-06T17:36:09.356Z,99.90
2022-10-06T17:38:40.076Z,99.90
2022-10-06T17:41:09.559Z,99.90
2022-10-06T17:43:37.230Z,99.90
2022-10-06T17:46:04.599Z,99.90
2022-10-06T17:48:31.353Z,99.90
2022-10-06T17:50:59.578Z,99.90
2022-10-06T17:53:26.741Z,99.90
2022-10-06T17:55:55.076Z,99.90
2022-10-06T17:58:22.287Z,99.90
2022-10-06T18:00:49.567Z,99.90
2022-10-06T18:03:16.499Z,99.90
2022-10-06T18:05:43.064Z,99.90
2022-10-06T18:08:10.372Z,99.90
2022-10-06T18:10:59.109Z,99.90
2022-10-06T18:13:26.338Z,99.90
2022-10-06T18:15:52.891Z,99.90
2022-10-06T18:18:25.145Z,99.90
2022-10-06T18:20:52.792Z,99.90
2022-10-06T18:23:19.442Z,99.90
2022-10-06T18:25:46.181Z,99.90
2022-10-06T18:28:13.025Z,99.90
2022-10-06T18:30:39.596Z,99.90
2022-10-06T18:38:44.512Z,99.90
2022-10-06T18:41:15.508Z,99.90
2022-10-06T18:43:42.363Z,99.90
2022-10-06T18:46:29.017Z,99.90
2022-10-06T18:48:56.039Z,99.90
2022-10-06T18:51:23.761Z,99.90
2022-10-06T18:53:50.757Z,99.90
2022-10-06T18:56:17.341Z,99.90
2022-10-06T18:58:47.226Z,99.90
2022-10-06T19:01:14.371Z,99.90
2022-10-06T19:03:41.012Z,99.90
2022-10-06T19:06:07.992Z,99.90
2022-10-06T19:08:35.027Z,99.90
2022-10-06T19:11:21.439Z,99.90
2022-10-06T19:13:49.208Z,99.90
2022-10-06T19:16:17.417Z,99.90
2022-10-06T19:18:44.167Z,99.90
2022-10-06T19:21:10.829Z,99.90
2022-10-06T19:23:38.569Z,99.90
2022-10-06T19:26:06.197Z,99.90
2022-10-06T19:28:33.423Z,99.90
2022-10-06T19:31:02.399Z,99.90
2022-10-06T19:33:29.768Z,99.90
2022-10-06T19:35:57.341Z,99.90
2022-10-06T19:38:24.177Z,99.90
2022-10-06T19:40:50.915Z,99.90
2022-10-06T19:43:17.664Z,99.90
2022-10-06T19:45:44.310Z,99.90
2022-10-06T19:48:10.903Z,99.90
2022-10-06T19:50:38.944Z,99.90
2022-10-06T19:53:06.150Z,99.90
2022-10-06T19:55:32.850Z,99.90
2022-10-06T19:58:00.100Z,99.90
2022-10-06T20:00:26.881Z,99.90
2022-10-06T20:02:53.470Z,99.90
2022-10-06T20:05:20.048Z,99.90
2022-10-06T20:07:47.239Z,99.90
2022-10-06T20:10:14.225Z,99.90
2022-10-06T20:12:43.507Z,99.90
2022-10-06T20:15:10.527Z,99.90
2022-10-06T20:17:37.147Z,99.90
2022-10-06T20:20:04.315Z,99.90
2022-10-06T20:22:31.758Z,99.90
2022-10-06T20:24:58.530Z,99.90
2022-10-06T20:27:25.108Z,99.90
2022-10-06T20:29:51.874Z,99.90
2022-10-06T20:32:18.571Z,99.90
2022-10-06T20:34:45.327Z,99.90
2022-10-06T20:37:11.899Z,99.90
2022-10-06T20:39:57.276Z,99.90
2022-10-06T20:42:23.970Z,99.90
2022-10-06T20:44:50.665Z,99.90
2022-10-06T20:47:17.304Z,99.90
2022-10-06T20:49:44.445Z,99.90
2022-10-06T20:52:14.309Z,99.90
2022-10-06T20:54:41.180Z,99.90
2022-10-06T20:57:09.285Z,99.90
2022-10-06T20:59:35.971Z,99.90
2022-10-06T21:02:03.257Z,99.90
2022-10-06T21:04:30.574Z,99.90
2022-10-06T21:06:57.690Z,99.90
2022-10-06T21:09:24.947Z,99.90
2022-10-06T21:11:51.951Z,99.90
2022-10-06T21:14:18.749Z,99.90
2022-10-06T21:16:46.752Z,99.90
2022-10-06T21:19:15.110Z,99.90
2022-10-06T21:21:42.842Z,99.90
2022-10-06T21:24:09.858Z,99.90
2022-10-06T21:26:38.560Z,99.90
2022-10-06T21:29:05.401Z,99.90
2022-10-06T21:31:33.235Z,99.90
2022-10-06T21:34:01.430Z,99.90
2022-10-06T21:36:29.251Z,99.90
2022-10-06T21:38:57.265Z,99.90
2022-10-06T21:41:25.308Z,99.90
2022-10-06T21:44:10.933Z,99.90
2022-10-06T21:46:40.762Z,99.90
2022-10-06T21:49:09.882Z,99.90
2022-10-06T21:51:36.629Z,99.90
2022-10-06T21:54:03.610Z,99.90
2022-10-06T21:56:31.423Z,99.90
2022-10-06T21:58:58.255Z,99.90
2022-10-06T22:01:26.753Z,99.90
2022-10-06T22:03:53.566Z,99.90
2022-10-06T22:06:20.465Z,99.90
2022-10-06T22:08:47.233Z,99.90
2022-10-06T22:11:18.411Z,99.90
2022-10-06T22:13:48.010Z,99.90
2022-10-06T22:16:16.264Z,99.90
2022-10-06T22:18:43.050Z,99.90
2022-10-06T22:21:20.631Z,99.90
2022-10-06T22:23:48.275Z,99.90
2022-10-06T22:26:15.830Z,99.90
2022-10-06T22:28:47.101Z,99.90
2022-10-06T22:31:14.552Z,99.90
2022-10-06T22:33:42.091Z,99.90
2022-10-06T22:36:10.227Z,99.90
2022-10-06T22:38:36.924Z,99.90
2022-10-06T22:41:04.674Z,99.90
2022-10-06T22:43:31.514Z,99.90
2022-10-06T22:45:58.292Z,99.90
2022-10-06T22:48:25.395Z,99.90
2022-10-06T22:50:52.190Z,99.90
2022-10-06T22:53:19.843Z,99.90
2022-10-06T22:55:46.731Z,99.90
2022-10-06T22:58:14.330Z,99.90
2022-10-06T23:00:41.295Z,99.90
2022-10-06T23:03:08.683Z,99.90
2022-10-06T23:05:35.461Z,99.90
2022-10-06T23:08:02.181Z,99.90
2022-10-06T23:10:31.664Z,99.90
2022-10-06T23:12:58.388Z,99.90
2022-10-06T23:15:26.085Z,99.90
2022-10-06T23:17:53.103Z,99.90
2022-10-06T23:20:20.145Z,99.90
2022-10-06T23:22:46.865Z,99.90
2022-10-06T23:25:13.782Z,99.90
2022-10-06T23:27:40.802Z,99.90
2022-10-06T23:30:07.958Z,99.90
2022-10-06T23:32:34.804Z,99.90
2022-10-06T23:35:01.481Z,99.90
2022-10-06T23:37:28.380Z,99.90
2022-10-06T23:39:55.061Z,99.90
2022-10-06T23:42:21.753Z,99.90
2022-10-06T23:44:48.507Z,99.90
2022-10-06T23:47:15.294Z,99.90
2022-10-06T23:49:43.701Z,99.90
2022-10-06T23:52:10.456Z,99.90
2022-10-06T23:54:37.235Z,99.90
2022-10-06T23:57:04.107Z,99.90
2022-10-06T23:59:31.182Z,99.90
